Time;durP1;ratioP1;P1;durP2;ratioP2;P2;SDS_P1;SDS_P2;PMS_P1;PMS_P2;Temp;Humidity;BMP_temperature;BMP_pressure;BME280_temperature;BME280_humidity;BME280_pressure;Samples;Min_cycle;Max_cycle;Signal;HPM_P1;HPM_P2
2023/12/19 00:01:52;;;;;;;365.10;328.50;;;27.20;99.90;;;;;;5015394;28;20072;-68
2023/12/19 00:04:19;;;;;;;301.55;272.35;;;27.20;99.90;;;;;;5015122;28;20069;-68
2023/12/19 00:06:45;;;;;;;266.42;241.77;;;27.20;99.90;;;;;;5015153;28;20022;-68
2023/12/19 00:09:13;;;;;;;291.80;263.02;;;27.20;99.90;;;;;;5013864;28;20026;-69
2023/12/19 00:11:39;;;;;;;243.25;220.55;;;27.30;99.90;;;;;;5007783;28;20365;-69
2023/12/19 00:14:07;;;;;;;272.13;246.32;;;27.30;99.90;;;;;;5015069;28;20030;-68
2023/12/19 00:16:33;;;;;;;256.08;232.43;;;27.40;99.90;;;;;;5014976;28;20427;-68
2023/12/19 00:19:00;;;;;;;260.88;236.90;;;27.50;99.90;;;;;;5014716;28;20026;-72
2023/12/19 00:21:26;;;;;;;252.48;229.30;;;27.40;99.90;;;;;;5015011;28;20053;-72
2023/12/19 00:23:53;;;;;;;277.42;251.18;;;27.40;99.90;;;;;;5014988;28;20025;-72
2023/12/19 00:26:19;;;;;;;275.95;249.98;;;27.50;99.90;;;;;;5014730;28;20022;-72
2023/12/19 00:28:46;;;;;;;305.17;275.35;;;27.50;99.90;;;;;;5014688;28;20518;-72
2023/12/19 00:31:22;;;;;;;262.27;237.88;;;27.60;99.90;;;;;;5014154;28;20048;-72
2023/12/19 00:33:48;;;;;;;269.00;243.27;;;27.60;99.90;;;;;;5014682;28;20025;-71
2023/12/19 00:36:24;;;;;;;272.55;246.95;;;27.50;99.90;;;;;;5014712;28;20369;-74
2023/12/19 00:38:50;;;;;;;236.68;215.25;;;27.50;99.90;;;;;;5014439;28;20041;-71
2023/12/19 00:41:17;;;;;;;250.02;227.48;;;27.50;99.90;;;;;;5014483;28;20030;-71
2023/12/19 00:43:45;;;;;;;263.90;239.23;;;27.50;99.90;;;;;;5014378;28;20037;-71
2023/12/19 00:46:12;;;;;;;266.17;240.88;;;27.60;99.90;;;;;;5014554;28;20480;-71
2023/12/19 00:48:39;;;;;;;250.10;227.40;;;27.70;99.90;;;;;;5014465;28;20077;-72
2023/12/19 00:51:12;;;;;;;285.73;258.65;;;27.70;99.90;;;;;;5014479;28;20072;-71
2023/12/19 00:53:39;;;;;;;287.30;259.25;;;27.70;99.90;;;;;;5011826;28;20469;-69
2023/12/19 00:56:09;;;;;;;278.05;251.13;;;27.70;99.90;;;;;;4994660;28;20498;-70
2023/12/19 00:58:37;;;;;;;261.67;236.75;;;27.70;99.90;;;;;;4994680;28;20031;-71
2023/12/19 01:01:05;;;;;;;297.10;268.27;;;27.80;99.90;;;;;;5005381;28;20022;-71
2023/12/19 01:03:32;;;;;;;293.33;265.17;;;27.80;99.90;;;;;;5008663;28;20168;-71
2023/12/19 01:06:02;;;;;;;262.75;238.30;;;27.80;99.90;;;;;;5014320;28;20048;-71
2023/12/19 01:08:29;;;;;;;280.50;253.88;;;27.80;99.90;;;;;;5013971;28;20029;-70
2023/12/19 01:10:55;;;;;;;295.48;267.38;;;27.80;99.90;;;;;;5014185;28;20025;-69
2023/12/19 01:13:22;;;;;;;307.63;277.98;;;27.80;99.90;;;;;;5014119;28;20026;-70
2023/12/19 01:15:50;;;;;;;272.55;246.90;;;27.90;99.90;;;;;;5013966;28;20557;-70
2023/12/19 01:18:17;;;;;;;297.27;269.23;;;27.90;99.90;;;;;;5013725;28;20393;-69
2023/12/19 01:20:44;;;;;;;295.38;267.38;;;27.90;99.90;;;;;;5013915;28;20385;-69
2023/12/19 01:23:11;;;;;;;310.02;279.92;;;27.90;99.90;;;;;;5014204;28;20037;-69
2023/12/19 01:25:39;;;;;;;278.77;252.90;;;27.90;99.90;;;;;;5013776;28;20025;-68
2023/12/19 01:28:06;;;;;;;314.05;283.20;;;27.90;99.90;;;;;;5013773;28;20026;-70
2023/12/19 01:30:32;;;;;;;308.88;278.42;;;27.90;99.90;;;;;;5013651;28;20026;-70
2023/12/19 01:32:59;;;;;;;310.63;280.40;;;27.90;99.90;;;;;;5013816;28;20033;-70
2023/12/19 01:35:25;;;;;;;296.38;267.73;;;28.00;99.90;;;;;;5013754;28;20045;-70
2023/12/19 01:37:51;;;;;;;318.65;287.65;;;28.00;99.90;;;;;;5013522;28;20098;-69
2023/12/19 01:40:18;;;;;;;306.33;276.42;;;28.10;99.90;;;;;;5013405;28;20433;-70
2023/12/19 01:42:44;;;;;;;303.50;273.90;;;28.00;99.90;;;;;;5013612;28;20022;-69
2023/12/19 01:45:13;;;;;;;322.08;290.60;;;28.00;99.90;;;;;;5013342;28;20065;-67
2023/12/19 01:47:41;;;;;;;291.92;264.35;;;28.10;99.90;;;;;;5013515;28;20018;-69
2023/12/19 01:50:09;;;;;;;340.95;306.92;;;28.00;99.90;;;;;;5013570;28;20022;-70
2023/12/19 01:52:39;;;;;;;301.27;272.45;;;28.10;99.90;;;;;;5008068;28;20041;-70
2023/12/19 01:55:07;;;;;;;329.25;296.33;;;28.10;99.90;;;;;;5004106;28;20027;-68
2023/12/19 01:57:35;;;;;;;304.20;275.08;;;28.10;99.90;;;;;;5002468;28;20034;-69
2023/12/19 02:00:01;;;;;;;310.52;281.27;;;28.20;99.90;;;;;;4993663;28;20108;-70
2023/12/19 02:02:28;;;;;;;292.05;264.00;;;28.20;99.90;;;;;;4993819;28;20110;-70
2023/12/19 02:04:58;;;;;;;322.45;291.20;;;28.20;99.90;;;;;;4993868;28;20097;-69
2023/12/19 02:07:25;;;;;;;305.02;275.40;;;28.20;99.90;;;;;;5001328;28;20417;-69
2023/12/19 02:09:53;;;;;;;296.20;268.08;;;28.20;99.90;;;;;;5013497;28;20018;-67
2023/12/19 02:12:21;;;;;;;318.95;288.02;;;28.30;99.90;;;;;;5013330;28;20436;-67
2023/12/19 02:14:48;;;;;;;290.60;263.35;;;28.20;99.90;;;;;;5013219;28;20026;-66
2023/12/19 02:17:16;;;;;;;265.15;240.60;;;28.30;99.90;;;;;;5013247;28;20480;-67
2023/12/19 02:19:46;;;;;;;292.70;265.13;;;28.30;99.90;;;;;;5013259;28;20041;-67
2023/12/19 02:22:13;;;;;;;283.58;257.33;;;28.30;99.90;;;;;;5013395;28;20106;-67
2023/12/19 02:24:40;;;;;;;317.05;286.35;;;28.40;99.90;;;;;;5013461;28;20435;-67
2023/12/19 02:27:08;;;;;;;310.58;280.65;;;28.40;99.90;;;;;;5013209;28;20022;-67
2023/12/19 02:29:35;;;;;;;272.05;246.35;;;28.40;99.90;;;;;;5013133;28;20022;-67
2023/12/19 02:32:02;;;;;;;310.80;280.10;;;28.40;99.90;;;;;;5008261;28;20109;-67
2023/12/19 02:34:29;;;;;;;301.75;272.60;;;28.40;99.90;;;;;;4996554;28;20065;-67
2023/12/19 02:36:56;;;;;;;327.13;295.02;;;28.50;99.90;;;;;;5006805;28;20042;-69
2023/12/19 02:39:23;;;;;;;169.90;155.10;;;28.60;99.90;;;;;;4993503;28;20035;-68
2023/12/19 02:41:50;;;;;;;315.85;285.15;;;28.60;99.90;;;;;;4993449;28;20042;-68
2023/12/19 02:44:16;;;;;;;357.38;321.55;;;28.60;99.90;;;;;;4993148;28;20129;-68
2023/12/19 02:46:43;;;;;;;351.27;315.40;;;28.60;99.90;;;;;;4993497;28;20085;-66
2023/12/19 02:49:10;;;;;;;340.10;305.38;;;28.60;99.90;;;;;;4993628;28;20018;-66
2023/12/19 02:51:36;;;;;;;341.30;308.02;;;28.60;99.90;;;;;;4993455;28;20062;-66
2023/12/19 02:54:03;;;;;;;291.58;263.42;;;28.60;99.90;;;;;;4996413;28;20053;-64
2023/12/19 02:56:31;;;;;;;306.63;276.95;;;28.80;99.90;;;;;;4996859;28;20054;-65
2023/12/19 02:58:58;;;;;;;308.13;278.55;;;28.80;99.90;;;;;;4996764;28;20026;-66
2023/12/19 03:01:24;;;;;;;313.48;283.00;;;28.80;99.90;;;;;;4996853;28;20076;-65
2023/12/19 03:03:51;;;;;;;290.35;262.58;;;28.90;99.90;;;;;;5006009;28;20021;-66
2023/12/19 03:06:17;;;;;;;285.95;258.40;;;28.90;99.90;;;;;;5016364;28;20049;-65
2023/12/19 03:08:46;;;;;;;317.95;286.58;;;29.00;99.90;;;;;;5016560;28;20278;-65
2023/12/19 03:11:14;;;;;;;275.48;249.70;;;29.00;99.90;;;;;;5016414;28;20029;-65
2023/12/19 03:13:41;;;;;;;260.25;236.15;;;29.00;99.90;;;;;;5016276;28;20033;-63
2023/12/19 03:16:07;;;;;;;244.38;221.70;;;29.00;99.90;;;;;;5016690;28;20054;-63
2023/12/19 03:18:34;;;;;;;264.25;239.52;;;29.10;99.90;;;;;;5016220;28;20469;-64
2023/12/19 03:21:00;;;;;;;266.42;241.43;;;29.10;99.90;;;;;;5018074;28;20052;-64
2023/12/19 03:23:28;;;;;;;253.43;229.82;;;29.10;99.90;;;;;;5023926;28;20384;-63
2023/12/19 03:25:54;;;;;;;234.73;213.48;;;29.20;99.90;;;;;;5025180;28;20419;-63
2023/12/19 03:28:21;;;;;;;237.13;215.65;;;29.30;99.90;;;;;;5023949;28;20029;-64
2023/12/19 03:30:47;;;;;;;232.10;211.07;;;29.30;99.90;;;;;;5021961;28;20022;-66
2023/12/19 03:33:14;;;;;;;201.52;183.63;;;29.30;99.90;;;;;;5025265;28;20021;-66
2023/12/19 03:35:40;;;;;;;225.27;204.93;;;29.40;99.90;;;;;;5026045;28;20014;-65
2023/12/19 03:38:07;;;;;;;229.23;208.65;;;29.40;99.90;;;;;;5021836;28;20029;-66
2023/12/19 03:40:35;;;;;;;229.30;208.35;;;29.40;99.90;;;;;;5025024;28;20030;-65
2023/12/19 03:43:02;;;;;;;256.58;232.68;;;29.50;99.90;;;;;;5025933;28;20057;-65
2023/12/19 03:45:28;;;;;;;207.35;188.85;;;29.50;99.90;;;;;;5024253;28;20068;-65
2023/12/19 03:47:55;;;;;;;237.70;216.02;;;29.60;99.90;;;;;;5024826;28;20021;-66
2023/12/19 03:50:22;;;;;;;241.82;219.48;;;29.60;99.90;;;;;;5025851;28;20059;-64
2023/12/19 03:52:48;;;;;;;248.02;225.18;;;29.70;99.90;;;;;;5024349;28;20545;-66
2023/12/19 03:55:15;;;;;;;273.85;248.35;;;29.80;99.90;;;;;;5024810;28;20028;-66
2023/12/19 03:57:41;;;;;;;222.75;202.38;;;29.80;99.90;;;;;;5025826;28;20068;-67
2023/12/19 04:00:08;;;;;;;217.73;197.85;;;29.80;99.90;;;;;;5021428;28;20108;-65
2023/12/19 04:02:35;;;;;;;221.90;202.02;;;29.80;99.90;;;;;;5024575;28;20067;-66
2023/12/19 04:05:02;;;;;;;219.50;199.20;;;29.90;99.90;;;;;;5025651;28;20025;-64
2023/12/19 04:07:28;;;;;;;222.13;201.52;;;29.90;99.90;;;;;;5023962;28;20450;-64
2023/12/19 04:09:55;;;;;;;194.40;177.25;;;29.90;99.90;;;;;;5024488;28;20049;-65
2023/12/19 04:12:21;;;;;;;217.40;197.60;;;29.90;99.90;;;;;;5025576;28;20075;-63
2023/12/19 04:14:48;;;;;;;216.02;196.48;;;30.10;99.90;;;;;;5021207;28;20017;-64
2023/12/19 04:17:14;;;;;;;227.93;207.20;;;30.20;99.90;;;;;;5024570;28;20018;-64
2023/12/19 04:19:41;;;;;;;228.73;207.68;;;30.30;99.90;;;;;;5025607;28;20412;-65
2023/12/19 04:22:07;;;;;;;202.60;184.68;;;30.40;99.90;;;;;;5020492;28;20028;-64
2023/12/19 04:24:34;;;;;;;211.80;192.82;;;30.40;99.90;;;;;;5025012;28;20071;-64
2023/12/19 04:27:00;;;;;;;220.45;200.60;;;30.40;99.90;;;;;;5023201;28;20026;-64
2023/12/19 04:29:27;;;;;;;204.48;186.32;;;30.50;99.90;;;;;;5024269;28;20491;-63
2023/12/19 04:31:53;;;;;;;210.27;191.52;;;30.50;99.90;;;;;;5024857;28;20084;-62
2023/12/19 04:34:19;;;;;;;228.75;208.07;;;30.60;99.90;;;;;;5023126;28;20022;-61
2023/12/19 04:36:46;;;;;;;245.98;223.40;;;30.70;99.90;;;;;;5024361;28;20487;-63
2023/12/19 04:39:12;;;;;;;184.80;168.55;;;30.70;99.90;;;;;;5024225;28;20037;-62
2023/12/19 04:41:39;;;;;;;189.95;172.63;;;30.80;99.90;;;;;;5023100;28;20014;-62
2023/12/19 04:44:06;;;;;;;186.23;169.93;;;30.80;99.90;;;;;;5024115;28;20519;-61
2023/12/19 04:46:32;;;;;;;160.52;146.80;;;30.90;99.90;;;;;;5024351;28;20049;-61
2023/12/19 04:48:59;;;;;;;151.38;138.25;;;30.90;99.90;;;;;;5022929;28;20097;-63
2023/12/19 04:51:26;;;;;;;188.80;172.27;;;30.80;99.90;;;;;;5024064;28;20030;-63
2023/12/19 04:53:53;;;;;;;196.77;179.63;;;30.90;99.90;;;;;;5024261;28;20038;-63
2023/12/19 04:56:20;;;;;;;197.48;179.38;;;30.90;99.90;;;;;;5022684;28;20026;-61
2023/12/19 04:58:46;;;;;;;197.35;179.85;;;30.90;99.90;;;;;;5024015;28;20468;-61
2023/12/19 05:01:13;;;;;;;216.73;196.75;;;31.00;99.90;;;;;;5024320;28;20507;-63
2023/12/19 05:03:41;;;;;;;209.80;190.93;;;31.10;99.90;;;;;;5022201;28;20025;-63
2023/12/19 05:06:08;;;;;;;203.55;185.48;;;31.10;99.90;;;;;;5023598;28;20490;-63
2023/12/19 05:08:35;;;;;;;211.93;193.18;;;31.10;99.90;;;;;;5024449;28;20029;-62
2023/12/19 05:11:02;;;;;;;214.85;195.75;;;31.10;99.90;;;;;;5019727;28;20026;-62
2023/12/19 05:13:31;;;;;;;177.93;162.85;;;31.20;99.90;;;;;;5023000;28;20041;-60
2023/12/19 05:15:57;;;;;;;193.73;176.20;;;31.20;99.90;;;;;;5023947;28;20472;-62
2023/12/19 05:18:24;;;;;;;166.90;152.60;;;31.20;99.90;;;;;;5022642;28;20064;-63
2023/12/19 05:20:50;;;;;;;159.18;145.77;;;31.20;99.90;;;;;;5021177;28;20040;-62
2023/12/19 05:23:17;;;;;;;185.25;169.07;;;31.20;99.90;;;;;;5013817;28;20061;-63
2023/12/19 05:25:43;;;;;;;153.57;140.70;;;31.30;99.90;;;;;;5013970;28;20021;-63
2023/12/19 05:28:10;;;;;;;191.02;174.52;;;31.30;99.90;;;;;;5013719;28;20029;-62
2023/12/19 05:30:36;;;;;;;178.88;163.18;;;31.40;99.90;;;;;;5012656;28;20377;-63
2023/12/19 05:33:03;;;;;;;183.13;167.35;;;31.30;99.90;;;;;;5014043;28;20026;-62
2023/12/19 05:35:30;;;;;;;184.65;168.90;;;31.40;99.90;;;;;;5013817;28;20032;-65
2023/12/19 05:37:57;;;;;;;159.32;146.02;;;31.50;99.90;;;;;;5013493;28;20409;-65
2023/12/19 05:40:24;;;;;;;151.85;138.88;;;31.60;99.90;;;;;;5013408;28;20033;-64
2023/12/19 05:42:54;;;;;;;123.57;113.32;;;31.60;99.90;;;;;;5013576;28;20071;-67
2023/12/19 05:45:21;;;;;;;141.60;129.73;;;31.60;99.90;;;;;;5010485;28;20095;-64
2023/12/19 05:47:48;;;;;;;184.50;168.77;;;31.50;99.90;;;;;;5002508;28;20034;-64
2023/12/19 05:50:14;;;;;;;160.75;147.30;;;31.50;99.90;;;;;;4993852;28;20031;-64
2023/12/19 05:52:41;;;;;;;192.80;175.85;;;31.60;99.90;;;;;;4993854;28;20469;-64
2023/12/19 05:55:08;;;;;;;207.48;189.15;;;31.80;99.90;;;;;;4993880;28;20493;-65
2023/12/19 05:57:36;;;;;;;202.93;184.95;;;31.80;99.90;;;;;;4999562;28;20083;-64
2023/12/19 06:00:03;;;;;;;179.57;163.70;;;31.80;99.90;;;;;;5013261;28;20037;-65
2023/12/19 06:02:29;;;;;;;189.82;173.20;;;31.80;99.90;;;;;;5021485;28;20079;-63
2023/12/19 06:04:58;;;;;;;189.13;172.05;;;32.00;99.90;;;;;;5021544;28;20029;-63
2023/12/19 06:07:25;;;;;;;185.50;169.30;;;31.90;99.90;;;;;;5022684;28;20048;-67
2023/12/19 06:09:52;;;;;;;179.85;164.38;;;31.90;99.90;;;;;;5019940;28;20026;-64
2023/12/19 06:12:18;;;;;;;207.00;188.43;;;32.00;99.90;;;;;;5015648;28;20030;-64
2023/12/19 06:14:45;;;;;;;190.80;173.55;;;32.00;99.90;;;;;;5024569;28;20453;-63
2023/12/19 06:17:11;;;;;;;178.35;162.90;;;32.10;99.90;;;;;;5028017;28;20021;-65
2023/12/19 06:19:38;;;;;;;179.52;163.85;;;32.20;99.90;;;;;;5015716;28;20018;-64
2023/12/19 06:22:05;;;;;;;194.23;177.25;;;32.40;99.90;;;;;;5021548;28;20025;-65
2023/12/19 06:24:31;;;;;;;162.18;148.55;;;32.60;99.90;;;;;;5028439;28;20022;-64
2023/12/19 06:26:58;;;;;;;177.68;162.63;;;32.60;99.90;;;;;;5019089;28;20033;-66
2023/12/19 06:29:25;;;;;;;187.77;171.65;;;32.60;99.90;;;;;;5024822;28;20152;-68
2023/12/19 06:31:52;;;;;;;196.38;179.25;;;32.60;99.90;;;;;;5025265;28;20037;-64
2023/12/19 06:34:18;;;;;;;191.57;174.63;;;32.50;99.90;;;;;;5021319;28;20049;-63
2023/12/19 06:36:44;;;;;;;185.07;169.23;;;32.50;99.90;;;;;;5024861;28;20421;-65
2023/12/19 06:39:11;;;;;;;200.07;182.55;;;32.40;99.90;;;;;;5027130;28;20033;-66
2023/12/19 06:41:38;;;;;;;201.07;183.27;;;32.40;99.90;;;;;;5025240;28;20043;-66
2023/12/19 06:44:04;;;;;;;184.30;168.02;;;32.30;99.90;;;;;;5026574;28;20097;-64
2023/12/19 06:46:31;;;;;;;205.15;186.95;;;32.20;99.90;;;;;;5027163;28;20017;-65
2023/12/19 06:48:58;;;;;;;182.60;166.48;;;32.10;99.90;;;;;;5025405;28;20072;-65
2023/12/19 06:51:27;;;;;;;163.02;148.07;;;31.80;99.90;;;;;;5026435;28;20025;-65
2023/12/19 06:53:57;;;;;;;201.95;183.43;;;31.60;99.90;;;;;;5026893;28;20046;-65
2023/12/19 06:56:26;;;;;;;190.15;173.05;;;31.30;99.90;;;;;;5023227;28;20022;-65
2023/12/19 06:58:54;;;;;;;178.95;163.40;;;30.80;99.90;;;;;;5023505;28;20084;-63
2023/12/19 07:01:21;;;;;;;186.15;169.27;;;30.50;99.90;;;;;;5024131;28;20105;-65
2023/12/19 07:03:47;;;;;;;182.45;166.07;;;30.10;99.90;;;;;;5021954;28;20026;-64
2023/12/19 07:06:15;;;;;;;165.52;150.55;;;29.70;99.90;;;;;;5023713;28;20056;-64
2023/12/19 07:08:42;;;;;;;159.68;144.95;;;29.40;99.90;;;;;;5024161;28;20484;-64
2023/12/19 07:11:09;;;;;;;168.38;153.38;;;29.40;99.90;;;;;;5023799;28;20060;-63
2023/12/19 07:13:36;;;;;;;139.13;127.25;;;29.30;99.90;;;;;;5021394;28;20084;-63
2023/12/19 07:16:03;;;;;;;170.98;155.02;;;29.30;99.90;;;;;;5022874;28;20045;-63
2023/12/19 07:18:30;;;;;;;154.88;141.32;;;29.40;99.90;;;;;;5024655;28;20032;-63
2023/12/19 07:20:57;;;;;;;124.53;113.72;;;29.60;99.90;;;;;;5024414;28;20028;-63
2023/12/19 07:23:24;;;;;;;184.70;168.10;;;29.60;99.90;;;;;;5026671;28;20030;-62
2023/12/19 07:25:51;;;;;;;185.23;168.73;;;29.70;99.90;;;;;;5025067;28;20034;-63
2023/12/19 07:28:17;;;;;;;130.25;118.95;;;29.80;99.90;;;;;;5024608;28;20022;-63
2023/12/19 07:30:45;;;;;;;143.35;130.77;;;29.80;99.90;;;;;;5026686;28;20017;-62
2023/12/19 07:33:12;;;;;;;180.48;164.02;;;29.90;99.90;;;;;;5025073;28;20022;-64
2023/12/19 07:35:40;;;;;;;168.57;152.90;;;29.90;99.90;;;;;;5024141;28;20060;-63
2023/12/19 07:38:08;;;;;;;168.65;152.90;;;29.90;99.90;;;;;;5021463;28;20088;-63
2023/12/19 07:40:35;;;;;;;164.55;149.95;;;29.90;99.90;;;;;;5024470;28;20328;-64
2023/12/19 07:43:02;;;;;;;165.23;150.65;;;29.90;99.90;;;;;;5025568;28;20038;-64
2023/12/19 07:45:28;;;;;;;133.80;122.72;;;29.90;99.90;;;;;;5023880;28;20056;-64
2023/12/19 07:47:55;;;;;;;183.32;167.15;;;29.80;99.90;;;;;;5024771;28;20076;-64
2023/12/19 07:50:21;;;;;;;140.18;128.45;;;29.80;99.90;;;;;;5025560;28;20381;-64
2023/12/19 07:52:49;;;;;;;209.27;190.55;;;29.80;99.90;;;;;;5024009;28;20095;-64
2023/12/19 07:55:15;;;;;;;163.07;149.27;;;29.80;99.90;;;;;;5024749;28;20061;-64
2023/12/19 07:57:42;;;;;;;187.60;171.18;;;29.70;99.90;;;;;;5025647;28;20026;-65
2023/12/19 08:00:11;;;;;;;201.05;183.05;;;29.70;99.90;;;;;;5023972;28;20520;-64
2023/12/19 08:02:37;;;;;;;194.60;177.40;;;29.70;99.90;;;;;;5024254;28;20014;-64
2023/12/19 08:05:04;;;;;;;176.88;161.82;;;29.70;99.90;;;;;;5025861;28;20014;-64
2023/12/19 08:07:31;;;;;;;172.02;157.07;;;29.80;99.90;;;;;;5024227;28;20025;-64
2023/12/19 08:09:57;;;;;;;173.85;158.85;;;29.70;99.90;;;;;;5023753;28;20032;-64
2023/12/19 08:12:24;;;;;;;185.55;169.35;;;29.80;99.90;;;;;;5025222;28;20017;-65
2023/12/19 08:14:51;;;;;;;222.50;202.55;;;29.80;99.90;;;;;;5024046;28;20026;-64
2023/12/19 08:17:18;;;;;;;256.98;231.68;;;29.80;99.90;;;;;;5023491;28;20037;-64
2023/12/19 08:19:45;;;;;;;206.15;187.68;;;29.90;99.90;;;;;;5024875;28;20434;-63
2023/12/19 08:22:12;;;;;;;238.13;216.13;;;29.80;99.90;;;;;;5023479;28;20014;-64
2023/12/19 08:24:39;;;;;;;222.45;202.10;;;29.80;99.90;;;;;;5023207;28;20026;-64
2023/12/19 08:27:06;;;;;;;205.30;187.23;;;29.80;99.90;;;;;;5023221;28;20458;-63
2023/12/19 08:29:32;;;;;;;214.63;194.93;;;29.70;99.90;;;;;;5024770;28;20033;-63
2023/12/19 08:31:59;;;;;;;457.67;414.15;;;29.60;99.90;;;;;;5023417;28;20068;-64
2023/12/19 08:34:25;;;;;;;747.38;637.70;;;29.60;99.90;;;;;;5023820;28;20013;-63
2023/12/19 08:36:52;;;;;;;259.77;234.60;;;29.50;99.90;;;;;;5024889;28;20045;-63
2023/12/19 08:39:18;;;;;;;236.52;215.07;;;29.50;99.90;;;;;;5023425;28;20104;-62
2023/12/19 08:41:46;;;;;;;214.25;194.95;;;29.50;99.90;;;;;;5018260;28;20036;-61
2023/12/19 08:44:13;;;;;;;250.70;227.63;;;29.50;99.90;;;;;;5026776;28;20041;-60
2023/12/19 08:46:39;;;;;;;273.85;248.00;;;29.40;99.90;;;;;;5034560;28;20025;-61
2023/12/19 08:49:06;;;;;;;284.48;257.23;;;29.40;99.90;;;;;;5034669;28;20017;-62
2023/12/19 08:51:32;;;;;;;314.05;282.83;;;29.40;99.90;;;;;;5033404;28;20034;-62
2023/12/19 08:53:59;;;;;;;363.70;327.20;;;29.50;99.90;;;;;;5024956;28;20403;-62
2023/12/19 08:56:25;;;;;;;306.73;276.50;;;29.50;99.90;;;;;;5022827;28;20033;-61
2023/12/19 08:58:52;;;;;;;314.63;284.30;;;29.40;99.90;;;;;;5023218;28;20025;-62
2023/12/19 09:01:19;;;;;;;209.57;189.95;;;29.40;99.90;;;;;;5023928;28;20028;-61
2023/12/19 09:03:45;;;;;;;252.30;228.07;;;29.40;99.90;;;;;;5022297;28;20022;-61
2023/12/19 09:06:12;;;;;;;287.85;260.13;;;29.40;99.90;;;;;;5022881;28;20026;-62
2023/12/19 09:08:38;;;;;;;317.75;286.60;;;29.40;99.90;;;;;;5024001;28;20120;-61
2023/12/19 09:11:06;;;;;;;362.60;325.33;;;29.40;99.90;;;;;;5022507;28;20056;-63
2023/12/19 09:13:38;;;;;;;406.92;364.23;;;29.40;99.90;;;;;;5022806;28;20056;-62
2023/12/19 09:16:06;;;;;;;381.42;342.13;;;29.40;99.90;;;;;;5019893;28;20057;-61
2023/12/19 09:18:33;;;;;;;389.08;348.10;;;29.30;99.90;;;;;;5022870;28;20091;-60
2023/12/19 09:21:00;;;;;;;385.15;345.45;;;29.30;99.90;;;;;;5023790;28;20037;-60
2023/12/19 09:23:27;;;;;;;360.80;324.45;;;29.30;99.90;;;;;;5023514;28;20049;-62
2023/12/19 09:25:54;;;;;;;286.65;259.88;;;29.30;99.90;;;;;;5019489;28;20018;-63
2023/12/19 09:28:21;;;;;;;248.30;225.02;;;29.30;99.90;;;;;;5022881;28;20009;-63
2023/12/19 09:30:48;;;;;;;267.83;242.77;;;29.30;99.90;;;;;;5022910;28;20473;-63
2023/12/19 09:33:14;;;;;;;318.58;287.00;;;29.20;99.90;;;;;;5019038;28;20036;-62
2023/12/19 09:35:41;;;;;;;223.43;202.90;;;29.30;99.90;;;;;;5022760;28;20120;-66
2023/12/19 09:38:08;;;;;;;132.45;121.07;;;29.30;99.90;;;;;;5023529;28;20473;-62
2023/12/19 09:40:34;;;;;;;133.57;122.43;;;29.30;99.90;;;;;;5019009;28;20025;-60
2023/12/19 09:43:02;;;;;;;145.48;133.35;;;29.40;99.90;;;;;;5022617;28;20022;-62
2023/12/19 09:45:29;;;;;;;130.35;119.53;;;29.40;99.90;;;;;;5023305;28;20069;-61
2023/12/19 09:48:03;;;;;;;131.50;120.10;;;29.40;99.90;;;;;;5019261;28;20079;-61
2023/12/19 09:50:32;;;;;;;123.70;113.25;;;29.30;99.90;;;;;;5020076;28;20056;-62
2023/12/19 09:53:00;;;;;;;149.70;136.75;;;29.30;99.90;;;;;;5022179;28;20034;-62
2023/12/19 09:55:29;;;;;;;135.63;123.60;;;29.30;99.90;;;;;;5023616;28;20092;-62
2023/12/19 09:57:56;;;;;;;185.98;169.63;;;29.30;99.90;;;;;;5022846;28;20033;-62
2023/12/19 10:00:25;;;;;;;156.85;142.88;;;29.30;99.90;;;;;;5021420;28;20037;-62
2023/12/19 10:02:53;;;;;;;192.40;174.55;;;29.30;99.90;;;;;;5027012;28;20117;-62
2023/12/19 10:05:20;;;;;;;249.57;225.77;;;29.30;99.90;;;;;;5030039;28;20074;-62
2023/12/19 10:07:47;;;;;;;253.98;230.45;;;29.30;99.90;;;;;;5026575;28;20404;-62
2023/12/19 10:10:14;;;;;;;212.13;193.07;;;29.30;99.90;;;;;;5028059;28;20717;-62
2023/12/19 10:12:51;;;;;;;236.95;214.25;;;29.30;99.90;;;;;;5029695;28;20105;-63
2023/12/19 10:15:17;;;;;;;221.80;200.65;;;29.30;99.90;;;;;;5028059;28;20028;-62
2023/12/19 10:18:05;;;;;;;235.95;211.80;;;29.30;99.90;;;;;;5027902;28;20399;-64
2023/12/19 10:20:32;;;;;;;264.35;238.00;;;29.30;99.90;;;;;;5025879;28;20477;-63
2023/12/19 10:23:04;;;;;;;254.35;228.18;;;29.30;99.90;;;;;;5028237;28;20538;-62
2023/12/19 10:25:31;;;;;;;;;;;29.30;99.90;;;;;;5025505;28;20029;-63
2023/12/19 10:28:07;;;;;;;170.35;153.77;;;29.20;99.90;;;;;;5028927;28;19912;-63
2023/12/19 10:30:37;;;;;;;156.15;141.00;;;29.20;99.90;;;;;;5024710;28;20030;-63
2023/12/19 10:33:05;;;;;;;158.05;142.40;;;29.20;99.90;;;;;;5029623;28;20029;-63
2023/12/19 10:35:44;;;;;;;183.95;160.43;;;29.20;99.90;;;;;;5025372;28;20481;-63
2023/12/19 10:38:11;;;;;;;193.65;172.43;;;29.20;99.90;;;;;;5025056;28;20100;-63
2023/12/19 10:40:38;;;;;;;180.38;161.63;;;29.20;99.90;;;;;;5021653;28;20037;-64
2023/12/19 10:43:05;;;;;;;212.38;191.27;;;29.20;99.90;;;;;;5017522;28;20101;-62
2023/12/19 10:45:32;;;;;;;186.30;167.40;;;29.20;99.90;;;;;;5030991;28;20065;-63
2023/12/19 10:47:59;;;;;;;197.07;177.30;;;29.20;99.90;;;;;;5020156;28;20427;-63
2023/12/19 10:50:27;;;;;;;161.57;144.65;;;29.20;99.90;;;;;;5019609;28;20029;-63
2023/12/19 10:52:59;;;;;;;215.80;194.95;;;29.20;99.90;;;;;;5024262;28;20566;-63
2023/12/19 10:55:33;;;;;;;238.50;214.43;;;29.10;99.90;;;;;;5026038;28;20030;-63
2023/12/19 10:58:01;;;;;;;255.40;229.25;;;29.10;99.90;;;;;;5026346;28;20495;-63
2023/12/19 11:00:30;;;;;;;286.23;257.85;;;29.10;99.90;;;;;;5028567;28;20084;-63
2023/12/19 11:03:05;;;;;;;225.85;203.43;;;29.10;99.90;;;;;;5025326;28;20495;-62
2023/12/19 11:05:41;;;;;;;232.90;209.68;;;29.10;99.90;;;;;;5021316;28;20092;-64
2023/12/19 11:08:15;;;;;;;310.27;279.08;;;29.10;99.90;;;;;;5022334;28;20049;-63
2023/12/19 11:10:48;;;;;;;273.13;247.32;;;29.10;99.90;;;;;;5026864;28;20368;-63
2023/12/19 11:13:15;;;;;;;233.20;211.02;;;29.10;99.90;;;;;;5023678;28;20389;-64
2023/12/19 11:15:53;;;;;;;252.23;227.60;;;29.00;99.90;;;;;;5024242;28;20045;-63
2023/12/19 11:18:31;;;;;;;151.10;136.40;;;29.00;99.90;;;;;;5022539;28;20034;-64
2023/12/19 11:21:05;;;;;;;174.88;158.30;;;29.00;99.90;;;;;;5021744;28;20024;-63
2023/12/19 11:23:52;;;;;;;160.93;145.88;;;28.90;99.90;;;;;;5025068;28;20030;-63
2023/12/19 11:26:27;;;;;;;244.05;184.80;;;29.00;99.90;;;;;;5022332;28;20040;-65
2023/12/19 11:28:53;;;;;;;168.25;151.05;;;28.90;99.90;;;;;;5023320;28;20562;-62
2023/12/19 11:31:30;;;;;;;194.95;176.07;;;29.00;99.90;;;;;;5020341;28;20382;-62
2023/12/19 11:34:01;;;;;;;347.48;307.33;;;28.90;99.90;;;;;;5018614;28;20072;-62
2023/12/19 11:36:28;;;;;;;294.80;264.63;;;29.00;99.90;;;;;;5020750;28;20029;-63
2023/12/19 11:39:34;;;;;;;237.25;213.52;;;29.00;99.90;;;;;;5021017;28;20044;-62
2023/12/19 11:42:01;;;;;;;234.85;211.98;;;28.90;99.90;;;;;;5020473;28;20042;-63
2023/12/19 11:44:34;;;;;;;251.32;227.02;;;28.90;99.90;;;;;;5022779;28;20560;-63
2023/12/19 11:47:20;;;;;;;262.48;237.38;;;28.90;99.90;;;;;;5021695;28;20029;-63
2023/12/19 11:49:47;;;;;;;253.10;228.25;;;28.90;99.90;;;;;;5023271;28;20425;-63
2023/12/19 11:52:36;;;;;;;271.58;242.95;;;28.90;99.90;;;;;;5024214;28;20029;-61
2023/12/19 11:55:05;;;;;;;260.80;234.68;;;28.90;99.90;;;;;;5022702;28;20088;-62
2023/12/19 11:57:33;;;;;;;268.90;242.43;;;28.90;99.90;;;;;;5021823;28;20030;-60
2023/12/19 12:00:01;;;;;;;234.85;211.63;;;28.90;99.90;;;;;;5022724;28;20033;-63
2023/12/19 12:02:36;;;;;;;193.23;172.73;;;28.80;99.90;;;;;;5022613;28;20382;-64
2023/12/19 12:05:15;;;;;;;207.30;187.02;;;28.80;99.90;;;;;;5018319;28;20090;-64
2023/12/19 12:07:48;;;;;;;192.07;173.73;;;28.80;99.90;;;;;;5026477;28;20025;-64
2023/12/19 12:10:21;;;;;;;221.35;199.75;;;28.80;99.90;;;;;;5025026;28;20091;-62
2023/12/19 12:12:49;;;;;;;179.80;162.05;;;28.80;99.90;;;;;;5024650;28;20030;-63